Catalina Jet — WDD8449 — position and weather

sailwx.info

Track history (hours):
 
Tides and Currents Weather Stations Pressure Air Temp Water Temp Dewpoint Dewpoint Depression Visibility Wind Speed Wind Dir Waves Ship Positions

Catalina Jet

Owner: RGWT, INC, San Pedro, CA. More information available from US FCC via Universal Licensing System and Coast Guard Vessel Documentation Center.

Last reported at 2018-Feb-22 18:00 UTC. Time now 2018-Feb-22 18:12 UTC.
Position N 33°45' W 118°11'.

Length 42 m; draft 3.7 m.

Type: High speed craft. MMSI: 367008510.

Date/timePositionNaut miles runAvg speedWind from/ knotsBaromVisibWave heightAir tempDewpointWater temp
2018-Feb-22 18:00N 33°45' W 118°11'1 2.2
2018-Feb-22 17:30N 33°46' W 118°12'0 0.4
2018-Feb-22 16:48N 33°46' W 118°12'517.3
2018-Feb-22 16:31N 33°40' W 118°11'2114.3
2018-Feb-22 15:04N 33°21' W 118°19'1529.1
2018-Feb-22 14:34N 33°35' W 118°14'229.7
2018-Feb-22 14:30N 33°37' W 118°13'916.4
2018-Feb-22 13:57N 33°46' W 118°12'1 0.1
2018-Feb-22 04:27N 33°45' W 118°11'4 1.7
2018-Feb-22 02:06N 33°41' W 118°12'330.6
2018-Feb-22 02:01N 33°44' W 118°11'2 4.3
2018-Feb-22 01:30N 33°46' W 118°12'0 0.1
2018-Feb-22 01:00N 33°46' W 118°12'1121.2
2018-Feb-22 00:29N 33°35' W 118°14'2 1.2
2018-Feb-21 22:33N 33°37' W 118°13'129.4
2018-Feb-21 22:30N 33°38' W 118°13'815.8
2018-Feb-21 22:00N 33°46' W 118°12'0 0.0
2018-Feb-21 21:30N 33°46' W 118°12'0 0.0
2018-Feb-21 21:01N 33°46' W 118°12'612.9
2018-Feb-21 20:30N 33°39' W 118°12'3 1.6
2018-Feb-21 18:23N 33°36' W 118°13'925.6
2018-Feb-21 18:00N 33°45' W 118°12'0 1.0
2018-Feb-21 17:30N 33°46' W 118°12'0 0.0
2018-Feb-21 17:00N 33°46' W 118°12'612.5
2018-Feb-21 16:31N 33°40' W 118°11'5 2.6
2018-Feb-21 14:31N 33°35' W 118°14'030.1
2018-Feb-21 14:30N 33°35' W 118°14'1121.4
2018-Feb-21 14:00N 33°46' W 118°12'0 0.0
2018-Feb-21 13:30N 33°46' W 118°12'0 0.0
2018-Feb-21 13:00N 33°46' W 118°12'0 0.0
2018-Feb-21 12:30N 33°46' W 118°12'0 0.0
2018-Feb-21 11:58N 33°46' W 118°12'0 0.0
2018-Feb-21 11:30N 33°46' W 118°12'0 0.0
2018-Feb-21 11:00N 33°46' W 118°12'0 0.0
2018-Feb-21 10:30N 33°46' W 118°12'0 0.0
2018-Feb-21 10:00N 33°46' W 118°12'0 0.0
2018-Feb-21 09:30N 33°46' W 118°12'0 0.0
2018-Feb-21 08:56N 33°46' W 118°12'0 0.0
2018-Feb-21 08:20N 33°46' W 118°12'0 0.0
2018-Feb-21 07:55N 33°46' W 118°12'0 0.0
2018-Feb-21 07:26N 33°46' W 118°12'0 0.0
2018-Feb-21 06:54N 33°46' W 118°12'0 0.0
2018-Feb-21 06:30N 33°46' W 118°12'0 0.0
2018-Feb-21 06:00N 33°46' W 118°12'0 0.0
2018-Feb-21 05:30N 33°46' W 118°12'0 0.0
2018-Feb-21 05:00N 33°46' W 118°12'1 1.4
2018-Feb-21 04:30N 33°45' W 118°11'4 1.7
2018-Feb-21 02:05N 33°41' W 118°12'228.9
2018-Feb-21 02:00N 33°43' W 118°11'3 5.1
2018-Feb-21 01:30N 33°46' W 118°12'0 0.0
2018-Feb-21 01:00N 33°46' W 118°12'918.4
2018-Feb-21 00:30N 33°37' W 118°13'1712.2
2018-Feb-20 23:09N 33°21' W 118°19'1428.7
2018-Feb-20 22:40N 33°34' W 118°13'429.7
2018-Feb-20 22:31N 33°38' W 118°12'714.7
2018-Feb-20 22:01N 33°46' W 118°12'0 0.0
2018-Feb-20 21:30N 33°46' W 118°12'0 0.0
2018-Feb-20 21:00N 33°46' W 118°12'510.9
2018-Feb-20 20:30N 33°40' W 118°11'5 2.2
2018-Feb-20 18:21N 33°36' W 118°13'927.1
2018-Feb-20 18:00N 33°45' W 118°11'1 1.2
2018-Feb-20 17:30N 33°46' W 118°12'0 0.0
2018-Feb-20 17:00N 33°46' W 118°12'613.0
2018-Feb-20 16:30N 33°39' W 118°11'3 1.6
2018-Feb-20 14:28N 33°36' W 118°12'1020.9
2018-Feb-20 14:00N 33°46' W 118°12'0 0.0
2018-Feb-20 13:30N 33°46' W 118°12'0 0.0
2018-Feb-20 13:00N 33°46' W 118°12'0 0.0
2018-Feb-20 12:30N 33°46' W 118°12'0 0.0
2018-Feb-20 01:03N 33°46' W 118°12'0 0.0
2018-Feb-20 01:00N 33°46' W 118°12'12 4.9
2018-Feb-19 22:35N 33°34' W 118°14'229.6
2018-Feb-19 22:30N 33°36' W 118°13'918.4
2018-Feb-19 22:00N 33°46' W 118°12'0 0.0
2018-Feb-19 21:30N 33°46' W 118°12'0 0.3
2018-Feb-19 21:00N 33°46' W 118°12'11 4.1
2018-Feb-19 18:23N 33°35' W 118°16'1127.4
2018-Feb-19 18:00N 33°45' W 118°11'1 1.6
2018-Feb-19 17:30N 33°46' W 118°12'0 0.0
2018-Feb-19 17:00N 33°46' W 118°12'0 0.0
2018-Feb-19 16:30N 33°46' W 118°12'0 0.0
2018-Feb-19 16:00N 33°46' W 118°12'0 0.0
2018-Feb-19 15:30N 33°46' W 118°12'0 0.0
2018-Feb-19 15:00N 33°46' W 118°12'0 0.0
2018-Feb-19 14:30N 33°46' W 118°12'0 0.0
2018-Feb-19 14:00N 33°46' W 118°12'0 0.0
2018-Feb-19 13:30N 33°46' W 118°12'0 0.0
2018-Feb-19 13:00N 33°46' W 118°12'0 0.0
2018-Feb-19 12:30N 33°46' W 118°12'0 0.0
2018-Feb-19 04:37N 33°46' W 118°12'0 4.0
2018-Feb-19 04:30N 33°45' W 118°12'6 2.5
2018-Feb-19 02:10N 33°40' W 118°12'529.6
2018-Feb-19 02:00N 33°44' W 118°11'2 3.6
2018-Feb-19 01:30N 33°46' W 118°12'0 0.0
2018-Feb-19 01:00N 33°46' W 118°12'815.4
2018-Feb-19 00:31N 33°38' W 118°12'1712.2
2018-Feb-18 23:06N 33°22' W 118°18'1430.3
2018-Feb-18 22:39N 33°35' W 118°13'430.0
2018-Feb-18 22:31N 33°39' W 118°12'713.7
2018-Feb-18 22:00N 33°46' W 118°12'0 0.1
2018-Feb-18 21:30N 33°46' W 118°12'0 0.0
2018-Feb-18 21:00N 33°46' W 118°12'713.1
2018-Feb-18 20:31N 33°39' W 118°11'2012.8
2018-Feb-18 18:59N 33°21' W 118°19'1529.5
2018-Feb-18 18:28N 33°35' W 118°13'1021.9
2018-Feb-18 18:00N 33°45' W 118°12'0 1.0
2018-Feb-18 17:30N 33°46' W 118°12'0 0.0
2018-Feb-18 17:00N 33°46' W 118°12'611.9
2018-Feb-18 16:31N 33°40' W 118°12'1729.9
2018-Feb-18 15:56N 33°24' W 118°18'2 3.0
2018-Feb-18 15:09N 33°21' W 118°19'429.3
2018-Feb-18 15:00N 33°25' W 118°17'1529.6
2018-Feb-18 14:31N 33°39' W 118°13'612.9
2018-Feb-18 14:01N 33°46' W 118°12'0 0.0
2018-Feb-18 13:30N 33°46' W 118°12'0 0.0
2018-Feb-18 13:00N 33°46' W 118°12'0 0.0
2018-Feb-18 12:30N 33°46' W 118°12'0 0.1
2018-Feb-18 04:33N 33°45' W 118°12'0 6.2
2018-Feb-18 04:30N 33°45' W 118°11'1426.8
2018-Feb-18 04:00N 33°32' W 118°15'1210.5
2018-Feb-18 02:52N 33°21' W 118°19'1027.1
2018-Feb-18 02:30N 33°30' W 118°16'1528.9
2018-Feb-18 02:00N 33°44' W 118°11'2 3.9
2018-Feb-18 01:30N 33°46' W 118°12'0 0.0
2018-Feb-18 01:00N 33°46' W 118°12'816.1
2018-Feb-18 00:30N 33°38' W 118°12'1529.9
2018-Feb-18 00:00N 33°23' W 118°18'3 3.1
2018-Feb-17 23:06N 33°21' W 118°19'322.5
2018-Feb-17 22:58N 33°23' W 118°19'1430.8
2018-Feb-17 22:31N 33°37' W 118°14'917.6
2018-Feb-17 22:00N 33°46' W 118°12'0 0.0
2018-Feb-17 21:30N 33°46' W 118°12'0 0.0
2018-Feb-17 21:00N 33°46' W 118°12'510.6
2018-Feb-17 20:30N 33°41' W 118°11'2011.9
2018-Feb-17 18:52N 33°22' W 118°19'1230.2
2018-Feb-17 18:29N 33°33' W 118°14'1326.7
2018-Feb-17 18:01N 33°45' W 118°11'1 1.2
2018-Feb-17 17:31N 33°46' W 118°12'0 0.0
2018-Feb-17 17:00N 33°46' W 118°12'5 9.3
2018-Feb-17 16:31N 33°41' W 118°11'1729.9
2018-Feb-17 15:57N 33°26' W 118°17'511.0
2018-Feb-17 15:29N 33°21' W 118°19'2 5.1
2018-Feb-17 15:01N 33°23' W 118°18'1530.2
2018-Feb-17 14:30N 33°37' W 118°13'816.6
2018-Feb-17 14:00N 33°46' W 118°12'0 0.1
2018-Feb-17 13:30N 33°46' W 118°12'0 0.0
2018-Feb-17 13:00N 33°46' W 118°12'0 0.0
2018-Feb-17 12:30N 33°46' W 118°12'0 0.0
2018-Feb-16 21:49N 33°46' W 118°12'0 0.0
2018-Feb-16 21:30N 33°46' W 118°12'0 0.0
2018-Feb-16 21:00N 33°46' W 118°12'0 0.1
2018-Feb-16 20:30N 33°46' W 118°12'0 0.1
2018-Feb-16 20:00N 33°46' W 118°12'0 0.0
2018-Feb-16 19:29N 33°46' W 118°12'0 0.0
2018-Feb-16 19:00N 33°46' W 118°12'0 0.0
2018-Feb-16 18:30N 33°46' W 118°12'0 0.0
2018-Feb-16 18:00N 33°46' W 118°12'0 0.0
2018-Feb-16 17:30N 33°46' W 118°12'0 0.0
2018-Feb-16 17:00N 33°46' W 118°12'0 0.0
2018-Feb-16 16:30N 33°46' W 118°12'0 0.0
2018-Feb-16 16:00N 33°46' W 118°12'0 0.0
2018-Feb-16 15:30N 33°46' W 118°12'0 0.0
2018-Feb-16 15:00N 33°46' W 118°12'0 0.0
2018-Feb-16 03:31N 33°46' W 118°12'0 0.6
2018-Feb-16 03:26N 33°46' W 118°12'0 0.1
2018-Feb-16 02:52N 33°46' W 118°12'0 0.0
2018-Feb-16 02:30N 33°46' W 118°12'0 0.0
2018-Feb-16 01:48N 33°46' W 118°12'0 0.0
2018-Feb-16 01:30N 33°46' W 118°12'0 0.0
2018-Feb-16 01:00N 33°46' W 118°12'0 0.0
2018-Feb-16 00:30N 33°46' W 118°12'0 0.0
2018-Feb-16 00:00N 33°46' W 118°12'0 0.0
2018-Feb-15 23:30N 33°46' W 118°12'0 0.0
2018-Feb-15 23:00N 33°46' W 118°12'0 0.0
2018-Feb-15 22:30N 33°46' W 118°12'0 0.0
2018-Feb-15 22:00N 33°46' W 118°12'0 0.0
2018-Feb-15 21:30N 33°46' W 118°12'0 0.0
2018-Feb-15 21:00N 33°46' W 118°12'0 0.0
2018-Feb-15 20:30N 33°46' W 118°12'0 0.0
2018-Feb-15 20:00N 33°46' W 118°12'0 0.0
2018-Feb-15 19:30N 33°46' W 118°12'0 0.0
2018-Feb-15 19:00N 33°46' W 118°12'0 0.0
2018-Feb-15 18:30N 33°46' W 118°12'0 0.0
2018-Feb-15 18:00N 33°46' W 118°12'0 0.0
2018-Feb-15 17:30N 33°46' W 118°12'0 0.0
2018-Feb-15 17:00N 33°46' W 118°12'0 0.0
2018-Feb-15 16:30N 33°46' W 118°12'0 0.0
2018-Feb-15 16:00N 33°46' W 118°12'0 0.0
2018-Feb-15 15:30N 33°46' W 118°12'0 0.0
2018-Feb-15 15:00N 33°46' W 118°12'0 0.0
2018-Feb-15 14:30N 33°46' W 118°12'0 0.0
2018-Feb-13 23:58N 33°46' W 118°12'0 0.0
2018-Feb-13 23:30N 33°46' W 118°12'0 0.0
2018-Feb-13 23:00N 33°46' W 118°12'0 0.0
2018-Feb-13 22:30N 33°46' W 118°12'0 0.0
2018-Feb-13 22:00N 33°46' W 118°12'0 0.0
2018-Feb-13 21:30N 33°46' W 118°12'0 0.0
2018-Feb-13 21:00N 33°46' W 118°12'0 0.0
2018-Feb-13 20:30N 33°46' W 118°12'0 0.0
2018-Feb-13 20:00N 33°46' W 118°12'0 0.0
2018-Feb-13 19:30N 33°46' W 118°12'0 0.0
2018-Feb-13 19:00N 33°46' W 118°12'0 0.0
2018-Feb-13 18:30N 33°46' W 118°12'0 0.0
2018-Feb-13 18:00N 33°46' W 118°12'0 0.0
2018-Feb-13 17:30N 33°46' W 118°12'0 0.0
2018-Feb-13 17:00N 33°46' W 118°12'0 0.0
2018-Feb-13 16:30N 33°46' W 118°12'0 0.0
2018-Feb-13 16:00N 33°46' W 118°12'0 0.0
2018-Feb-13 15:29N 33°46' W 118°12'0 0.1
2018-Feb-13 15:00N 33°46' W 118°12'0 0.1
2018-Feb-13 14:30N 33°46' W 118°12'0 0.0
2018-Feb-13 14:00N 33°46' W 118°12'0 0.0
2018-Feb-13 13:30N 33°46' W 118°12'0 0.0
2018-Feb-12 22:04N 33°46' W 118°12'0 0.0
2018-Feb-12 22:00N 33°46' W 118°12'0 0.0
2018-Feb-12 21:31N 33°46' W 118°12'0 0.0
2018-Feb-12 21:00N 33°46' W 118°12'0 0.0
2018-Feb-12 20:30N 33°46' W 118°12'0 0.0
2018-Feb-12 20:00N 33°46' W 118°12'0 0.0
2018-Feb-12 19:30N 33°46' W 118°12'0 0.0
2018-Feb-12 19:01N 33°46' W 118°12'0 0.0
2018-Feb-12 18:30N 33°46' W 118°12'0 0.0
2018-Feb-12 18:01N 33°46' W 118°12'  
Track history (hours):
 
Tides and Currents Weather Stations Pressure Air Temp Water Temp Dewpoint Dewpoint Depression Visibility Wind Speed Wind Dir Waves Ship Positions

Catalina Jet

Owner: RGWT, INC, San Pedro, CA. More information available from US FCC via Universal Licensing System and Coast Guard Vessel Documentation Center.

Last reported at 2018-Feb-22 18:00 UTC. Time now 2018-Feb-22 18:12 UTC.
Position N 33°45' W 118°11'.

Length 42 m; draft 3.7 m.

Type: High speed craft. MMSI: 367008510.

Date/timePositionNaut miles runAvg speedWind from/ knotsBaromVisibWave heightAir tempDewpointWater temp
2018-Feb-22 18:00N 33°45' W 118°11'1 2.2
2018-Feb-22 17:30N 33°46' W 118°12'0 0.4
2018-Feb-22 16:48N 33°46' W 118°12'517.3
2018-Feb-22 16:31N 33°40' W 118°11'2114.3
2018-Feb-22 15:04N 33°21' W 118°19'1529.1
2018-Feb-22 14:34N 33°35' W 118°14'229.7
2018-Feb-22 14:30N 33°37' W 118°13'916.4
2018-Feb-22 13:57N 33°46' W 118°12'1 0.1
2018-Feb-22 04:27N 33°45' W 118°11'4 1.7
2018-Feb-22 02:06N 33°41' W 118°12'330.6
2018-Feb-22 02:01N 33°44' W 118°11'2 4.3
2018-Feb-22 01:30N 33°46' W 118°12'0 0.1
2018-Feb-22 01:00N 33°46' W 118°12'1121.2
2018-Feb-22 00:29N 33°35' W 118°14'2 1.2
2018-Feb-21 22:33N 33°37' W 118°13'129.4
2018-Feb-21 22:30N 33°38' W 118°13'815.8
2018-Feb-21 22:00N 33°46' W 118°12'0 0.0
2018-Feb-21 21:30N 33°46' W 118°12'0 0.0
2018-Feb-21 21:01N 33°46' W 118°12'612.9
2018-Feb-21 20:30N 33°39' W 118°12'3 1.6
2018-Feb-21 18:23N 33°36' W 118°13'925.6
2018-Feb-21 18:00N 33°45' W 118°12'0 1.0
2018-Feb-21 17:30N 33°46' W 118°12'0 0.0
2018-Feb-21 17:00N 33°46' W 118°12'612.5
2018-Feb-21 16:31N 33°40' W 118°11'5 2.6
2018-Feb-21 14:31N 33°35' W 118°14'030.1
2018-Feb-21 14:30N 33°35' W 118°14'1121.4
2018-Feb-21 14:00N 33°46' W 118°12'0 0.0
2018-Feb-21 13:30N 33°46' W 118°12'0 0.0
2018-Feb-21 13:00N 33°46' W 118°12'0 0.0
2018-Feb-21 12:30N 33°46' W 118°12'0 0.0
2018-Feb-21 11:58N 33°46' W 118°12'0 0.0
2018-Feb-21 11:30N 33°46' W 118°12'0 0.0
2018-Feb-21 11:00N 33°46' W 118°12'0 0.0
2018-Feb-21 10:30N 33°46' W 118°12'0 0.0
2018-Feb-21 10:00N 33°46' W 118°12'0 0.0
2018-Feb-21 09:30N 33°46' W 118°12'0 0.0
2018-Feb-21 08:56N 33°46' W 118°12'0 0.0
2018-Feb-21 08:20N 33°46' W 118°12'0 0.0
2018-Feb-21 07:55N 33°46' W 118°12'0 0.0
2018-Feb-21 07:26N 33°46' W 118°12'0 0.0
2018-Feb-21 06:54N 33°46' W 118°12'0 0.0
2018-Feb-21 06:30N 33°46' W 118°12'0 0.0
2018-Feb-21 06:00N 33°46' W 118°12'0 0.0
2018-Feb-21 05:30N 33°46' W 118°12'0 0.0
2018-Feb-21 05:00N 33°46' W 118°12'1 1.4
2018-Feb-21 04:30N 33°45' W 118°11'4 1.7
2018-Feb-21 02:05N 33°41' W 118°12'228.9
2018-Feb-21 02:00N 33°43' W 118°11'3 5.1
2018-Feb-21 01:30N 33°46' W 118°12'0 0.0
2018-Feb-21 01:00N 33°46' W 118°12'918.4
2018-Feb-21 00:30N 33°37' W 118°13'1712.2
2018-Feb-20 23:09N 33°21' W 118°19'1428.7
2018-Feb-20 22:40N 33°34' W 118°13'429.7
2018-Feb-20 22:31N 33°38' W 118°12'714.7
2018-Feb-20 22:01N 33°46' W 118°12'0 0.0
2018-Feb-20 21:30N 33°46' W 118°12'0 0.0
2018-Feb-20 21:00N 33°46' W 118°12'510.9
2018-Feb-20 20:30N 33°40' W 118°11'5 2.2
2018-Feb-20 18:21N 33°36' W 118°13'927.1
2018-Feb-20 18:00N 33°45' W 118°11'1 1.2
2018-Feb-20 17:30N 33°46' W 118°12'0 0.0
2018-Feb-20 17:00N 33°46' W 118°12'613.0
2018-Feb-20 16:30N 33°39' W 118°11'3 1.6
2018-Feb-20 14:28N 33°36' W 118°12'1020.9
2018-Feb-20 14:00N 33°46' W 118°12'0 0.0
2018-Feb-20 13:30N 33°46' W 118°12'0 0.0
2018-Feb-20 13:00N 33°46' W 118°12'0 0.0
2018-Feb-20 12:30N 33°46' W 118°12'0 0.0
2018-Feb-20 01:03N 33°46' W 118°12'0 0.0
2018-Feb-20 01:00N 33°46' W 118°12'12 4.9
2018-Feb-19 22:35N 33°34' W 118°14'229.6
2018-Feb-19 22:30N 33°36' W 118°13'918.4
2018-Feb-19 22:00N 33°46' W 118°12'0 0.0
2018-Feb-19 21:30N 33°46' W 118°12'0 0.3
2018-Feb-19 21:00N 33°46' W 118°12'11 4.1
2018-Feb-19 18:23N 33°35' W 118°16'1127.4
2018-Feb-19 18:00N 33°45' W 118°11'1 1.6
2018-Feb-19 17:30N 33°46' W 118°12'0 0.0
2018-Feb-19 17:00N 33°46' W 118°12'0 0.0
2018-Feb-19 16:30N 33°46' W 118°12'0 0.0
2018-Feb-19 16:00N 33°46' W 118°12'0 0.0
2018-Feb-19 15:30N 33°46' W 118°12'0 0.0
2018-Feb-19 15:00N 33°46' W 118°12'0 0.0
2018-Feb-19 14:30N 33°46' W 118°12'0 0.0
2018-Feb-19 14:00N 33°46' W 118°12'0 0.0
2018-Feb-19 13:30N 33°46' W 118°12'0 0.0
2018-Feb-19 13:00N 33°46' W 118°12'0 0.0
2018-Feb-19 12:30N 33°46' W 118°12'0 0.0
2018-Feb-19 04:37N 33°46' W 118°12'0 4.0
2018-Feb-19 04:30N 33°45' W 118°12'6 2.5
2018-Feb-19 02:10N 33°40' W 118°12'529.6
2018-Feb-19 02:00N 33°44' W 118°11'2 3.6
2018-Feb-19 01:30N 33°46' W 118°12'0 0.0
2018-Feb-19 01:00N 33°46' W 118°12'815.4
2018-Feb-19 00:31N 33°38' W 118°12'1712.2
2018-Feb-18 23:06N 33°22' W 118°18'1430.3
2018-Feb-18 22:39N 33°35' W 118°13'430.0
2018-Feb-18 22:31N 33°39' W 118°12'713.7
2018-Feb-18 22:00N 33°46' W 118°12'0 0.1
2018-Feb-18 21:30N 33°46' W 118°12'0 0.0
2018-Feb-18 21:00N 33°46' W 118°12'713.1
2018-Feb-18 20:31N 33°39' W 118°11'2012.8
2018-Feb-18 18:59N 33°21' W 118°19'1529.5
2018-Feb-18 18:28N 33°35' W 118°13'1021.9
2018-Feb-18 18:00N 33°45' W 118°12'0 1.0
2018-Feb-18 17:30N 33°46' W 118°12'0 0.0
2018-Feb-18 17:00N 33°46' W 118°12'611.9
2018-Feb-18 16:31N 33°40' W 118°12'1729.9
2018-Feb-18 15:56N 33°24' W 118°18'2 3.0
2018-Feb-18 15:09N 33°21' W 118°19'429.3
2018-Feb-18 15:00N 33°25' W 118°17'1529.6
2018-Feb-18 14:31N 33°39' W 118°13'612.9
2018-Feb-18 14:01N 33°46' W 118°12'0 0.0
2018-Feb-18 13:30N 33°46' W 118°12'0 0.0
2018-Feb-18 13:00N 33°46' W 118°12'0 0.0
2018-Feb-18 12:30N 33°46' W 118°12'0 0.1
2018-Feb-18 04:33N 33°45' W 118°12'0 6.2
2018-Feb-18 04:30N 33°45' W 118°11'1426.8
2018-Feb-18 04:00N 33°32' W 118°15'1210.5
2018-Feb-18 02:52N 33°21' W 118°19'1027.1
2018-Feb-18 02:30N 33°30' W 118°16'1528.9
2018-Feb-18 02:00N 33°44' W 118°11'2 3.9
2018-Feb-18 01:30N 33°46' W 118°12'0 0.0
2018-Feb-18 01:00N 33°46' W 118°12'816.1
2018-Feb-18 00:30N 33°38' W 118°12'1529.9
2018-Feb-18 00:00N 33°23' W 118°18'3 3.1
2018-Feb-17 23:06N 33°21' W 118°19'322.5
2018-Feb-17 22:58N 33°23' W 118°19'1430.8
2018-Feb-17 22:31N 33°37' W 118°14'917.6
2018-Feb-17 22:00N 33°46' W 118°12'0 0.0
2018-Feb-17 21:30N 33°46' W 118°12'0 0.0
2018-Feb-17 21:00N 33°46' W 118°12'510.6
2018-Feb-17 20:30N 33°41' W 118°11'2011.9
2018-Feb-17 18:52N 33°22' W 118°19'1230.2
2018-Feb-17 18:29N 33°33' W 118°14'1326.7
2018-Feb-17 18:01N 33°45' W 118°11'1 1.2
2018-Feb-17 17:31N 33°46' W 118°12'0 0.0
2018-Feb-17 17:00N 33°46' W 118°12'5 9.3
2018-Feb-17 16:31N 33°41' W 118°11'1729.9
2018-Feb-17 15:57N 33°26' W 118°17'511.0
2018-Feb-17 15:29N 33°21' W 118°19'2 5.1
2018-Feb-17 15:01N 33°23' W 118°18'1530.2
2018-Feb-17 14:30N 33°37' W 118°13'816.6
2018-Feb-17 14:00N 33°46' W 118°12'0 0.1
2018-Feb-17 13:30N 33°46' W 118°12'0 0.0
2018-Feb-17 13:00N 33°46' W 118°12'0 0.0
2018-Feb-17 12:30N 33°46' W 118°12'0 0.0
2018-Feb-16 21:49N 33°46' W 118°12'0 0.0
2018-Feb-16 21:30N 33°46' W 118°12'0 0.0
2018-Feb-16 21:00N 33°46' W 118°12'0 0.1
2018-Feb-16 20:30N 33°46' W 118°12'0 0.1
2018-Feb-16 20:00N 33°46' W 118°12'0 0.0
2018-Feb-16 19:29N 33°46' W 118°12'0 0.0
2018-Feb-16 19:00N 33°46' W 118°12'0 0.0
2018-Feb-16 18:30N 33°46' W 118°12'0 0.0
2018-Feb-16 18:00N 33°46' W 118°12'0 0.0
2018-Feb-16 17:30N 33°46' W 118°12'0 0.0
2018-Feb-16 17:00N 33°46' W 118°12'0 0.0
2018-Feb-16 16:30N 33°46' W 118°12'0 0.0
2018-Feb-16 16:00N 33°46' W 118°12'0 0.0
2018-Feb-16 15:30N 33°46' W 118°12'0 0.0
2018-Feb-16 15:00N 33°46' W 118°12'0 0.0
2018-Feb-16 03:31N 33°46' W 118°12'0 0.6
2018-Feb-16 03:26N 33°46' W 118°12'0 0.1
2018-Feb-16 02:52N 33°46' W 118°12'0 0.0
2018-Feb-16 02:30N 33°46' W 118°12'0 0.0
2018-Feb-16 01:48N 33°46' W 118°12'0 0.0
2018-Feb-16 01:30N 33°46' W 118°12'0 0.0
2018-Feb-16 01:00N 33°46' W 118°12'0 0.0
2018-Feb-16 00:30N 33°46' W 118°12'0 0.0
2018-Feb-16 00:00N 33°46' W 118°12'0 0.0
2018-Feb-15 23:30N 33°46' W 118°12'0 0.0
2018-Feb-15 23:00N 33°46' W 118°12'0 0.0
2018-Feb-15 22:30N 33°46' W 118°12'0 0.0
2018-Feb-15 22:00N 33°46' W 118°12'0 0.0
2018-Feb-15 21:30N 33°46' W 118°12'0 0.0
2018-Feb-15 21:00N 33°46' W 118°12'0 0.0
2018-Feb-15 20:30N 33°46' W 118°12'0 0.0
2018-Feb-15 20:00N 33°46' W 118°12'0 0.0
2018-Feb-15 19:30N 33°46' W 118°12'0 0.0
2018-Feb-15 19:00N 33°46' W 118°12'0 0.0
2018-Feb-15 18:30N 33°46' W 118°12'0 0.0
2018-Feb-15 18:00N 33°46' W 118°12'0 0.0
2018-Feb-15 17:30N 33°46' W 118°12'0 0.0
2018-Feb-15 17:00N 33°46' W 118°12'0 0.0
2018-Feb-15 16:30N 33°46' W 118°12'0 0.0
2018-Feb-15 16:00N 33°46' W 118°12'0 0.0
2018-Feb-15 15:30N 33°46' W 118°12'0 0.0
2018-Feb-15 15:00N 33°46' W 118°12'0 0.0
2018-Feb-15 14:30N 33°46' W 118°12'0 0.0
2018-Feb-13 23:58N 33°46' W 118°12'0 0.0
2018-Feb-13 23:30N 33°46' W 118°12'0 0.0
2018-Feb-13 23:00N 33°46' W 118°12'0 0.0
2018-Feb-13 22:30N 33°46' W 118°12'0 0.0
2018-Feb-13 22:00N 33°46' W 118°12'0 0.0
2018-Feb-13 21:30N 33°46' W 118°12'0 0.0
2018-Feb-13 21:00N 33°46' W 118°12'0 0.0
2018-Feb-13 20:30N 33°46' W 118°12'0 0.0
2018-Feb-13 20:00N 33°46' W 118°12'0 0.0
2018-Feb-13 19:30N 33°46' W 118°12'0 0.0
2018-Feb-13 19:00N 33°46' W 118°12'0 0.0
2018-Feb-13 18:30N 33°46' W 118°12'0 0.0
2018-Feb-13 18:00N 33°46' W 118°12'0 0.0
2018-Feb-13 17:30N 33°46' W 118°12'0 0.0
2018-Feb-13 17:00N 33°46' W 118°12'0 0.0
2018-Feb-13 16:30N 33°46' W 118°12'0 0.0
2018-Feb-13 16:00N 33°46' W 118°12'0 0.0
2018-Feb-13 15:29N 33°46' W 118°12'0 0.1
2018-Feb-13 15:00N 33°46' W 118°12'0 0.1
2018-Feb-13 14:30N 33°46' W 118°12'0 0.0
2018-Feb-13 14:00N 33°46' W 118°12'0 0.0
2018-Feb-13 13:30N 33°46' W 118°12'0 0.0
2018-Feb-12 22:04N 33°46' W 118°12'0 0.0
2018-Feb-12 22:00N 33°46' W 118°12'0 0.0
2018-Feb-12 21:31N 33°46' W 118°12'0 0.0
2018-Feb-12 21:00N 33°46' W 118°12'0 0.0
2018-Feb-12 20:30N 33°46' W 118°12'0 0.0
2018-Feb-12 20:00N 33°46' W 118°12'0 0.0
2018-Feb-12 19:30N 33°46' W 118°12'0 0.0
2018-Feb-12 19:01N 33°46' W 118°12'0 0.0
2018-Feb-12 18:30N 33°46' W 118°12'0 0.0
2018-Feb-12 18:01N 33°46' W 118°12'  

Dump ship's entire track history